createdAt,value
2018-09-10T00:01:46.921Z,14.00
2018-09-10T00:04:16.239Z,14.00
2018-09-10T00:06:46.336Z,14.00
2018-09-10T00:09:16.060Z,14.00
2018-09-10T00:11:45.463Z,14.10
2018-09-10T00:14:14.793Z,14.10
2018-09-10T00:16:44.900Z,14.00
2018-09-10T00:19:14.251Z,13.90
2018-09-10T00:21:43.620Z,13.50
2018-09-10T00:24:13.939Z,13.60
2018-09-10T00:26:43.301Z,13.60
2018-09-10T00:29:12.628Z,13.60
2018-09-10T00:31:41.979Z,13.60
2018-09-10T00:34:11.302Z,13.70
2018-09-10T00:36:40.626Z,13.70
2018-09-10T00:39:12.031Z,13.70
2018-09-10T00:41:41.750Z,13.50
2018-09-10T00:44:11.390Z,13.50
2018-09-10T00:46:40.799Z,13.70
2018-09-10T00:49:10.124Z,13.60
2018-09-10T00:51:39.489Z,13.70
2018-09-10T00:54:08.832Z,13.70
2018-09-10T00:56:38.163Z,13.50
2018-09-10T00:59:07.582Z,13.60
2018-09-10T01:01:37.222Z,13.60
2018-09-10T01:04:06.561Z,13.10
2018-09-10T01:06:36.032Z,13.00
2018-09-10T01:09:08.112Z,13.10
2018-09-10T01:11:37.890Z,13.10
2018-09-10T01:14:07.496Z,13.10
2018-09-10T01:16:36.849Z,13.20
2018-09-10T01:19:06.160Z,13.20
2018-09-10T01:21:35.889Z,13.20
2018-09-10T01:24:05.255Z,13.20
2018-09-10T01:26:34.540Z,13.20
2018-09-10T01:29:03.891Z,13.20
2018-09-10T01:31:33.307Z,13.20
2018-09-10T01:34:07.913Z,13.20
2018-09-10T01:36:37.202Z,13.20
2018-09-10T01:39:08.460Z,13.20
2018-09-10T01:41:37.799Z,12.90
2018-09-10T01:44:07.177Z,12.80
2018-09-10T01:46:36.508Z,12.90
2018-09-10T01:49:05.892Z,13.00
2018-09-10T01:51:35.202Z,13.00
2018-09-10T01:54:04.583Z,13.00
2018-09-10T01:56:34.979Z,12.80
2018-09-10T01:59:04.516Z,12.90
2018-09-10T02:01:33.867Z,12.90
2018-09-10T02:04:03.216Z,12.90
2018-09-10T02:06:32.577Z,12.80
2018-09-10T02:09:01.916Z,12.80
2018-09-10T02:11:31.272Z,12.70
2018-09-10T02:14:00.612Z,12.70
2018-09-10T02:16:29.965Z,12.50
2018-09-10T02:18:59.263Z,12.50
2018-09-10T02:21:28.607Z,12.60
2018-09-10T02:23:57.996Z,12.50
2018-09-10T02:26:27.520Z,12.60
2018-09-10T02:28:58.367Z,12.70
2018-09-10T02:31:27.706Z,12.70
2018-09-10T02:33:57.025Z,12.60
2018-09-10T02:36:26.347Z,12.60
2018-09-10T02:38:55.660Z,12.50
2018-09-10T02:41:25.194Z,12.20
2018-09-10T02:43:54.559Z,12.30
2018-09-10T02:46:23.949Z,12.30
2018-09-10T02:48:53.256Z,12.20
2018-09-10T02:51:22.836Z,12.30
2018-09-10T02:53:52.168Z,12.30
2018-09-10T02:56:21.559Z,12.40
2018-09-10T02:58:50.893Z,12.30
2018-09-10T03:01:20.223Z,12.20
2018-09-10T03:03:49.581Z,12.10
2018-09-10T03:06:18.924Z,12.00
2018-09-10T03:08:48.265Z,12.00
2018-09-10T03:11:17.741Z,11.90
2018-09-10T03:13:47.081Z,11.80
2018-09-10T03:16:16.476Z,11.80
2018-09-10T03:18:45.864Z,11.90
2018-09-10T03:21:15.433Z,11.90
2018-09-10T03:23:44.811Z,11.60
2018-09-10T03:26:14.120Z,11.50
2018-09-10T03:28:43.450Z,11.50
2018-09-10T03:31:12.770Z,11.70
2018-09-10T03:33:42.153Z,11.80
2018-09-10T03:36:11.466Z,11.90
2018-09-10T03:38:40.802Z,11.90
2018-09-10T03:41:10.113Z,11.80
2018-09-10T03:43:39.453Z,11.70
2018-09-10T03:46:09.193Z,11.70
2018-09-10T03:48:38.558Z,11.70
2018-09-10T03:51:07.880Z,11.70
2018-09-10T03:53:37.221Z,11.70
2018-09-10T03:56:06.572Z,11.50
2018-09-10T03:58:35.982Z,11.40
2018-09-10T04:01:05.341Z,11.40
2018-09-10T04:03:35.136Z,11.50
2018-09-10T04:06:04.498Z,11.60
2018-09-10T04:08:33.882Z,11.60
2018-09-10T04:11:03.249Z,11.60
2018-09-10T04:13:32.711Z,11.50
2018-09-10T04:16:02.250Z,11.20
2018-09-10T04:18:31.711Z,11.30
2018-09-10T04:21:01.121Z,11.30
2018-09-10T04:23:30.487Z,11.40
2018-09-10T04:25:59.885Z,11.40
2018-09-10T04:28:29.238Z,11.50
2018-09-10T04:30:58.594Z,11.50
2018-09-10T04:33:28.035Z,11.30
2018-09-10T04:35:57.496Z,11.00
2018-09-10T04:38:26.854Z,11.00
2018-09-10T04:40:56.301Z,11.20
2018-09-10T04:43:25.649Z,11.20
2018-09-10T04:45:55.048Z,11.40
2018-09-10T04:48:24.414Z,11.60
2018-09-10T04:50:53.787Z,11.60
2018-09-10T04:53:23.127Z,11.60
2018-09-10T04:55:52.531Z,11.30
2018-09-10T04:58:21.914Z,10.90
2018-09-10T05:00:51.276Z,11.10
2018-09-10T05:03:20.656Z,11.20
2018-09-10T05:05:50.064Z,11.30
2018-09-10T05:08:19.431Z,11.10
2018-09-10T05:10:48.807Z,11.30
2018-09-10T05:13:18.159Z,11.30
2018-09-10T05:15:48.563Z,11.20
2018-09-10T05:18:17.904Z,11.10
2018-09-10T05:20:47.272Z,11.30
2018-09-10T05:23:16.638Z,11.40
2018-09-10T05:25:46.041Z,11.50
2018-09-10T05:28:15.500Z,11.60
2018-09-10T05:30:44.862Z,11.70
2018-09-10T05:33:14.607Z,11.80
2018-09-10T05:35:44.014Z,11.70
2018-09-10T05:38:13.379Z,11.60
2018-09-10T05:40:42.766Z,11.60
2018-09-10T05:43:12.136Z,11.70
2018-09-10T05:45:41.645Z,11.90
2018-09-10T05:48:11.032Z,12.00
2018-09-10T05:50:40.463Z,12.20
2018-09-10T05:53:09.828Z,12.30
2018-09-10T05:55:39.291Z,12.40
2018-09-10T05:58:08.683Z,12.70
2018-09-10T06:00:38.079Z,12.80
2018-09-10T06:03:07.411Z,12.90
2018-09-10T06:05:36.920Z,12.90
2018-09-10T06:08:06.301Z,13.10
2018-09-10T06:10:35.780Z,13.40
2018-09-10T06:13:05.127Z,13.60
2018-09-10T06:15:34.527Z,14.00
2018-09-10T06:18:03.887Z,14.40
2018-09-10T06:20:33.276Z,14.70
2018-09-10T06:23:02.652Z,15.10
2018-09-10T06:25:32.032Z,15.40
2018-09-10T06:28:01.400Z,15.70
2018-09-10T06:30:30.788Z,15.80
2018-09-10T06:33:00.270Z,15.90
2018-09-10T06:35:30.844Z,16.10
2018-09-10T06:38:00.223Z,16.30
2018-09-10T06:40:29.869Z,16.60
2018-09-10T06:42:59.234Z,17.00
2018-09-10T06:45:28.633Z,17.30
2018-09-10T06:47:58.013Z,17.40
2018-09-10T06:50:27.365Z,17.70
2018-09-10T06:52:56.722Z,18.00
2018-09-10T06:55:26.048Z,18.20
2018-09-10T06:57:55.431Z,18.50
2018-09-10T07:00:24.869Z,18.70
2018-09-10T07:02:54.260Z,19.10
2018-09-10T07:05:23.707Z,19.80
2018-09-10T07:07:53.096Z,20.20
2018-09-10T07:10:22.437Z,20.70
2018-09-10T07:12:51.857Z,21.20
2018-09-10T07:15:21.171Z,21.60
2018-09-10T07:17:50.704Z,21.50
2018-09-10T07:20:20.042Z,21.20
2018-09-10T07:22:49.458Z,21.00
2018-09-10T07:25:18.788Z,21.00
2018-09-10T07:27:48.187Z,21.20
2018-09-10T07:30:17.555Z,21.90
2018-09-10T07:32:46.896Z,22.40
2018-09-10T07:35:16.277Z,22.80
2018-09-10T07:37:45.641Z,23.50
2018-09-10T07:40:15.359Z,24.00
2018-09-10T07:42:44.748Z,24.40
2018-09-10T07:45:14.147Z,25.20
2018-09-10T07:47:43.524Z,25.30
2018-09-10T07:50:12.949Z,25.70
2018-09-10T07:52:42.291Z,25.50
2018-09-10T07:55:12.804Z,25.60
2018-09-10T07:57:42.186Z,26.20
2018-09-10T08:00:11.524Z,26.70
2018-09-10T08:02:40.867Z,27.10
2018-09-10T08:05:10.216Z,27.30
2018-09-10T08:07:39.547Z,27.60
2018-09-10T08:10:08.958Z,27.60
2018-09-10T08:14:59.467Z,28.20
2018-09-10T08:17:28.798Z,29.20
2018-09-10T08:19:58.136Z,29.90
2018-09-10T08:22:27.475Z,30.20
2018-09-10T08:24:56.824Z,30.40
2018-09-10T08:27:26.152Z,30.30
2018-09-10T08:29:55.528Z,30.40
2018-09-10T08:32:24.876Z,31.20
2018-09-10T08:34:54.243Z,31.40
2018-09-10T08:37:23.600Z,31.40
2018-09-10T08:39:52.945Z,31.80
2018-09-10T08:42:22.291Z,31.70
2018-09-10T08:44:51.640Z,31.50
2018-09-10T08:47:20.992Z,31.70
2018-09-10T08:49:50.784Z,31.80
2018-09-10T08:52:20.144Z,32.20
2018-09-10T08:54:49.790Z,32.60
2018-09-10T08:57:19.009Z,32.90
2018-09-10T08:59:48.355Z,32.80
2018-09-10T09:02:17.774Z,32.60
2018-09-10T09:04:47.155Z,32.60
2018-09-10T09:07:16.556Z,33.20
2018-09-10T09:09:45.927Z,33.90
2018-09-10T09:12:15.328Z,34.10
2018-09-10T09:14:44.657Z,34.10
2018-09-10T09:17:14.078Z,34.60
2018-09-10T09:19:43.419Z,33.30
2018-09-10T09:22:12.812Z,33.70
2018-09-10T09:24:42.165Z,34.20
2018-09-10T09:27:11.560Z,35.20
2018-09-10T09:29:40.978Z,35.60
2018-09-10T09:32:10.411Z,34.50
2018-09-10T09:34:44.984Z,33.30
2018-09-10T09:37:19.684Z,33.90
2018-09-10T09:39:54.396Z,34.60
2018-09-10T09:42:29.109Z,34.30
2018-09-10T09:45:03.705Z,33.20
2018-09-10T09:47:33.086Z,33.00
2018-09-10T09:50:02.447Z,33.50
2018-09-10T09:52:32.207Z,34.40
2018-09-10T09:55:01.916Z,34.90
2018-09-10T09:57:31.526Z,35.10
2018-09-10T10:00:00.863Z,36.00
2018-09-10T10:02:35.570Z,35.20
2018-09-10T10:05:04.952Z,35.60
2018-09-10T10:07:34.376Z,35.70
2018-09-10T10:10:03.762Z,35.90
2018-09-10T10:12:33.613Z,36.50
2018-09-10T10:15:02.997Z,36.80
2018-09-10T10:17:32.407Z,36.70
2018-09-10T10:20:01.783Z,36.80
2018-09-10T10:22:31.183Z,35.90
2018-09-10T10:25:00.505Z,35.90
2018-09-10T10:27:29.880Z,35.90
2018-09-10T10:29:59.242Z,36.40
2018-09-10T10:32:28.681Z,36.30
2018-09-10T10:34:58.046Z,36.60
2018-09-10T10:37:27.454Z,36.30
2018-09-10T10:39:56.818Z,35.30
2018-09-10T10:42:26.214Z,33.60
2018-09-10T10:44:55.579Z,32.40
2018-09-10T10:47:25.057Z,33.20
2018-09-10T10:49:54.382Z,33.70
2018-09-10T10:52:23.773Z,33.70
2018-09-10T10:54:56.078Z,33.50
2018-09-10T10:57:25.497Z,32.70
2018-09-10T10:59:54.824Z,32.50
2018-09-10T11:02:24.284Z,32.40
2018-09-10T11:04:53.570Z,32.20
2018-09-10T11:07:22.916Z,31.90
2018-09-10T11:09:52.287Z,32.60
2018-09-10T11:12:21.608Z,32.30
2018-09-10T11:14:51.051Z,31.70
2018-09-10T11:17:20.378Z,32.70
2018-09-10T11:19:49.747Z,33.10
2018-09-10T11:22:19.167Z,32.80
2018-09-10T11:24:48.508Z,33.70
2018-09-10T11:27:17.920Z,32.90
2018-09-10T11:29:47.326Z,32.90
2018-09-10T11:32:16.680Z,34.30
2018-09-10T11:34:46.062Z,33.70
2018-09-10T11:37:15.401Z,33.40
2018-09-10T11:39:44.803Z,32.20
2018-09-10T11:42:14.103Z,32.80
2018-09-10T11:44:43.453Z,33.10
2018-09-10T11:47:12.798Z,33.10
2018-09-10T11:49:42.139Z,32.80
2018-09-10T11:52:11.484Z,32.70
2018-09-10T11:54:40.821Z,32.50
2018-09-10T11:57:10.246Z,32.20
2018-09-10T11:59:39.627Z,31.90
2018-09-10T12:02:09.319Z,31.40
2018-09-10T12:04:39.774Z,31.40
2018-09-10T12:07:09.536Z,31.90
2018-09-10T12:09:39.749Z,32.00
2018-09-10T12:12:09.112Z,33.00
2018-09-10T12:14:38.499Z,33.30
2018-09-10T12:17:07.863Z,33.10
2018-09-10T12:19:37.241Z,32.80
2018-09-10T12:22:06.599Z,32.60
2018-09-10T12:24:35.964Z,32.90
2018-09-10T12:27:05.378Z,33.20
2018-09-10T12:29:34.710Z,33.60
2018-09-10T12:32:04.084Z,33.70
2018-09-10T12:34:33.450Z,33.90
2018-09-10T12:37:02.824Z,33.00
2018-09-10T12:39:32.236Z,31.90
2018-09-10T12:42:01.552Z,32.00
2018-09-10T12:44:30.907Z,32.20
2018-09-10T12:47:00.279Z,31.90
2018-09-10T12:49:29.609Z,31.90
2018-09-10T12:51:58.955Z,31.40
2018-09-10T12:54:28.315Z,30.40
2018-09-10T12:56:57.745Z,29.90
2018-09-10T12:59:27.068Z,30.50
2018-09-10T13:01:56.430Z,31.30
2018-09-10T13:04:25.772Z,31.10
2018-09-10T13:06:55.160Z,31.30
2018-09-10T13:09:24.469Z,30.90
2018-09-10T13:11:53.908Z,31.40
2018-09-10T13:14:23.236Z,31.80
2018-09-10T13:16:52.595Z,32.00
2018-09-10T13:19:21.916Z,31.90
2018-09-10T13:21:51.287Z,31.90
2018-09-10T13:24:20.609Z,31.50
2018-09-10T13:26:49.971Z,31.40
2018-09-10T13:29:19.313Z,31.00
2018-09-10T13:31:48.695Z,30.80
2018-09-10T13:34:18.020Z,30.50
2018-09-10T13:36:47.433Z,30.40
2018-09-10T13:39:16.723Z,30.30
2018-09-10T13:41:46.120Z,30.10
2018-09-10T13:44:15.448Z,30.10
2018-09-10T13:46:44.823Z,29.90
2018-09-10T13:49:14.142Z,29.60
2018-09-10T13:51:43.488Z,29.40
2018-09-10T13:54:12.836Z,29.40
2018-09-10T13:56:42.186Z,29.50
2018-09-10T13:59:11.561Z,29.30
2018-09-10T14:01:40.943Z,29.10
2018-09-10T14:04:10.312Z,29.00
2018-09-10T14:06:39.683Z,28.60
2018-09-10T14:09:09.127Z,28.40
2018-09-10T14:11:38.735Z,28.50
2018-09-10T14:14:08.425Z,28.30
2018-09-10T14:16:37.835Z,28.20
2018-09-10T14:19:07.177Z,28.10
2018-09-10T14:21:36.564Z,28.10
2018-09-10T14:24:05.888Z,28.10
2018-09-10T14:26:35.269Z,28.10
2018-09-10T14:29:04.627Z,28.00
2018-09-10T14:31:34.089Z,27.70
2018-09-10T14:34:03.839Z,27.90
2018-09-10T14:36:33.210Z,28.10
2018-09-10T14:39:02.575Z,28.10
2018-09-10T14:41:31.986Z,28.10
2018-09-10T14:44:01.357Z,28.20
2018-09-10T14:46:30.749Z,28.20
2018-09-10T14:49:00.091Z,28.20
2018-09-10T14:51:29.454Z,28.00
2018-09-10T14:53:58.814Z,28.00
2018-09-10T14:56:28.269Z,27.90
2018-09-10T14:58:57.606Z,27.80
2018-09-10T15:01:26.981Z,27.60
2018-09-10T15:03:56.383Z,27.40
2018-09-10T15:06:29.674Z,27.30
2018-09-10T15:08:58.999Z,27.20
2018-09-10T15:11:28.390Z,27.10
2018-09-10T15:13:57.748Z,26.90
2018-09-10T15:16:27.161Z,26.90
2018-09-10T15:18:56.587Z,27.00
2018-09-10T15:21:25.895Z,26.90
2018-09-10T15:23:55.267Z,27.00
2018-09-10T15:26:24.724Z,27.00
2018-09-10T15:28:54.166Z,27.00
2018-09-10T15:31:23.508Z,26.80
2018-09-10T15:33:53.357Z,26.60
2018-09-10T15:36:22.787Z,26.50
2018-09-10T15:38:52.162Z,26.70
2018-09-10T15:41:21.526Z,26.80
2018-09-10T15:43:50.901Z,26.70
2018-09-10T15:46:20.310Z,26.70
2018-09-10T15:48:49.687Z,26.70
2018-09-10T15:51:19.426Z,26.50
2018-09-10T15:53:48.855Z,26.60
2018-09-10T15:56:18.209Z,26.80
2018-09-10T15:58:47.622Z,26.60
2018-09-10T16:01:17.058Z,26.70
2018-09-10T16:03:46.907Z,26.60
2018-09-10T16:06:16.433Z,26.50
2018-09-10T16:08:45.880Z,26.40
2018-09-10T16:11:15.237Z,26.30
2018-09-10T16:13:44.691Z,26.10
2018-09-10T16:16:14.092Z,26.00
2018-09-10T16:18:43.475Z,26.00
2018-09-10T16:21:12.847Z,26.00
2018-09-10T16:23:42.212Z,26.00
2018-09-10T16:26:11.574Z,25.80
2018-09-10T16:28:41.000Z,25.70
2018-09-10T16:31:10.360Z,25.60
2018-09-10T16:33:39.759Z,25.60
2018-09-10T16:36:09.119Z,25.40
2018-09-10T16:38:38.482Z,25.30
2018-09-10T16:41:07.928Z,25.30
2018-09-10T16:43:37.331Z,25.10
2018-09-10T16:46:06.715Z,25.10
2018-09-10T16:48:36.257Z,25.10
2018-09-10T16:51:05.573Z,25.00
2018-09-10T16:53:35.099Z,25.00
2018-09-10T16:56:04.492Z,24.90
2018-09-10T16:58:33.958Z,24.90
2018-09-10T17:01:03.357Z,24.80
2018-09-10T17:03:32.792Z,24.80
2018-09-10T17:06:02.163Z,24.70
2018-09-10T17:08:31.570Z,24.60
2018-09-10T17:11:00.946Z,24.50
2018-09-10T17:13:30.350Z,24.50
2018-09-10T17:15:59.860Z,24.40
2018-09-10T17:18:29.230Z,24.40
2018-09-10T17:20:58.597Z,24.40
2018-09-10T17:23:27.977Z,24.30
2018-09-10T17:25:57.337Z,24.20
2018-09-10T17:28:26.745Z,24.20
2018-09-10T17:30:56.199Z,24.10
2018-09-10T17:33:25.579Z,24.00
2018-09-10T17:35:55.041Z,24.00
2018-09-10T17:38:24.803Z,23.90
2018-09-10T17:40:54.273Z,23.90
2018-09-10T17:43:23.648Z,23.80
2018-09-10T17:45:53.059Z,23.60
2018-09-10T17:48:22.433Z,23.50
2018-09-10T17:50:51.805Z,23.40
2018-09-10T17:53:21.215Z,23.20
2018-09-10T17:55:50.697Z,23.10
2018-09-10T17:58:20.451Z,23.00
2018-09-10T18:00:49.981Z,23.00
2018-09-10T18:03:19.319Z,23.10
2018-09-10T18:05:48.733Z,22.90
2018-09-10T18:08:18.095Z,22.70
2018-09-10T18:10:47.498Z,22.70
2018-09-10T18:13:16.920Z,22.50
2018-09-10T18:15:46.311Z,22.50
2018-09-10T18:18:15.660Z,22.40
2018-09-10T18:20:45.028Z,22.40
2018-09-10T18:23:14.383Z,22.30
2018-09-10T18:25:44.040Z,22.30
2018-09-10T18:28:13.419Z,22.20
2018-09-10T18:30:42.826Z,22.20
2018-09-10T18:33:12.521Z,22.20
2018-09-10T18:35:41.981Z,22.10
2018-09-10T18:38:11.326Z,22.10
2018-09-10T18:40:40.727Z,22.00
2018-09-10T18:43:10.065Z,22.00
2018-09-10T18:45:39.669Z,21.90
2018-09-10T18:48:09.031Z,21.70
2018-09-10T18:50:38.444Z,21.80
2018-09-10T18:53:08.000Z,21.80
2018-09-10T18:55:37.400Z,21.80
2018-09-10T18:58:06.762Z,21.70
2018-09-10T19:00:36.249Z,21.50
2018-09-10T19:03:05.582Z,21.40
2018-09-10T19:05:35.175Z,21.40
2018-09-10T19:08:04.679Z,21.30
2018-09-10T19:10:34.084Z,21.30
2018-09-10T19:13:03.482Z,21.30
2018-09-10T19:15:33.147Z,21.30
2018-09-10T19:18:02.554Z,21.20
2018-09-10T19:20:31.969Z,21.00
2018-09-10T19:23:01.407Z,20.90
2018-09-10T19:25:30.936Z,20.90
2018-09-10T19:28:00.300Z,20.90
2018-09-10T19:30:29.650Z,20.80
2018-09-10T19:32:59.251Z,20.80
2018-09-10T19:35:28.616Z,20.80
2018-09-10T19:37:58.001Z,20.70
2018-09-10T19:40:27.403Z,20.70
2018-09-10T19:42:56.788Z,20.50
2018-09-10T19:45:26.133Z,20.50
2018-09-10T19:47:55.511Z,20.60
2018-09-10T19:50:24.847Z,20.80
2018-09-10T19:52:54.601Z,20.90
2018-09-10T19:55:23.959Z,20.70
2018-09-10T19:57:53.352Z,20.70
2018-09-10T20:00:22.800Z,20.80
2018-09-10T20:02:52.200Z,20.60
2018-09-10T20:05:21.524Z,20.70
2018-09-10T20:07:50.899Z,20.50
2018-09-10T20:10:20.212Z,20.40
2018-09-10T20:12:49.614Z,20.50
2018-09-10T20:15:19.408Z,20.50
2018-09-10T20:17:48.727Z,20.50
2018-09-10T20:20:18.034Z,20.60
2018-09-10T20:22:47.434Z,20.50
2018-09-10T20:25:17.242Z,20.70
2018-09-10T20:27:46.614Z,20.60
2018-09-10T20:30:15.976Z,20.50
2018-09-10T20:32:45.381Z,20.50
2018-09-10T20:35:14.839Z,20.50
2018-09-10T20:37:44.232Z,20.50
2018-09-10T20:40:13.585Z,20.40
2018-09-10T20:42:42.987Z,20.50
2018-09-10T20:45:12.629Z,20.50
2018-09-10T20:47:42.131Z,20.50
2018-09-10T20:50:11.519Z,20.70
2018-09-10T20:52:40.916Z,20.70
2018-09-10T20:55:11.213Z,20.60
2018-09-10T20:57:40.653Z,20.30
2018-09-10T21:00:10.047Z,20.30
2018-09-10T21:02:39.399Z,20.20
2018-09-10T21:05:08.771Z,20.10
2018-09-10T21:07:38.221Z,20.20
2018-09-10T21:10:07.546Z,20.30
2018-09-10T21:12:36.885Z,20.10
2018-09-10T21:15:06.497Z,20.10
2018-09-10T21:17:35.824Z,20.30
2018-09-10T21:20:05.231Z,20.10
2018-09-10T21:22:34.578Z,20.00
2018-09-10T21:25:03.967Z,20.10
2018-09-10T21:27:33.329Z,20.00
2018-09-10T21:30:02.716Z,20.00
2018-09-10T21:32:32.072Z,19.90
2018-09-10T21:35:01.525Z,20.00
2018-09-10T21:37:30.859Z,19.90
2018-09-10T21:40:00.278Z,19.90
2018-09-10T21:42:30.388Z,19.80
2018-09-10T21:44:59.751Z,19.90
2018-09-10T21:47:30.314Z,20.00
2018-09-10T21:49:59.882Z,20.00
2018-09-10T21:52:29.302Z,19.90
2018-09-10T21:54:58.652Z,19.90
2018-09-10T21:57:28.019Z,19.90
2018-09-10T21:59:57.465Z,19.90
2018-09-10T22:02:26.812Z,20.00
2018-09-10T22:04:56.254Z,19.90
2018-09-10T22:07:25.590Z,19.90
2018-09-10T22:09:54.990Z,20.00
2018-09-10T22:12:24.312Z,19.90
2018-09-10T22:14:53.658Z,20.00
2018-09-10T22:17:23.478Z,19.90
2018-09-10T22:19:52.923Z,19.90
2018-09-10T22:22:22.256Z,19.80
2018-09-10T22:24:51.596Z,19.30
2018-09-10T22:27:20.930Z,19.20
2018-09-10T22:29:50.263Z,19.30
2018-09-10T22:32:19.606Z,19.10
2018-09-10T22:34:48.968Z,18.90
2018-09-10T22:37:18.264Z,18.90
2018-09-10T22:39:49.253Z,18.90
2018-09-10T22:42:20.512Z,19.00
2018-09-10T22:44:51.378Z,18.70
2018-09-10T22:47:22.373Z,18.60
2018-09-10T22:49:51.984Z,18.60
2018-09-10T22:52:21.290Z,18.60
2018-09-10T22:54:50.648Z,18.60
2018-09-10T22:57:19.995Z,18.60
2018-09-10T22:59:49.379Z,18.40
2018-09-10T23:02:18.734Z,18.40
2018-09-10T23:04:48.099Z,18.40
2018-09-10T23:07:17.460Z,18.40
2018-09-10T23:09:46.847Z,18.30
2018-09-10T23:12:16.489Z,18.20
2018-09-10T23:14:45.887Z,18.20
2018-09-10T23:17:15.243Z,18.20
2018-09-10T23:19:44.583Z,18.00
2018-09-10T23:22:13.940Z,18.00
2018-09-10T23:24:43.269Z,18.10
2018-09-10T23:27:12.654Z,17.90
2018-09-10T23:29:42.001Z,18.00
2018-09-10T23:32:11.381Z,17.80
2018-09-10T23:34:40.736Z,17.80
2018-09-10T23:37:10.087Z,17.80
2018-09-10T23:39:39.442Z,17.90
2018-09-10T23:42:08.849Z,18.00
2018-09-10T23:44:38.619Z,18.10
2018-09-10T23:47:08.015Z,18.20
2018-09-10T23:49:37.336Z,18.40
2018-09-10T23:52:06.990Z,18.50
2018-09-10T23:54:36.488Z,18.60
2018-09-10T23:57:06.046Z,18.60
2018-09-10T23:59:35.370Z,18.50
